Aviation Digital Data Service (ADDS)

Output produced by METARs form (2345 UTC 23 May 2022)
found at http://www.aviationweather.gov/metar/data/
 
LSMA 232320Z AUTO 00000KT 9999NDV -SHRA BKN045 OVC093 16/15 Q1008 RMK
LSZB 232320Z AUTO VRB02KT 9999 SCT045 BKN050 15/13 Q1008 REDZ
TAF LSZB 231425Z 2315/2324 27006KT 9999 FEW040 SCT120 
     PROB40 
     TEMPO 2315/2324 SHRA FEW050TCU
       
LSMD 232320Z AUTO 34004KT 9999NDV -SHRA FEW013 SCT016 OVC032 16/13 Q1008 RMK
LSME 232320Z AUTO VRB01KT 9999NDV -RA BKN037 BKN051 OVC090 17/17 Q1008 RMK
LSGG 232320Z AUTO 15004KT 9999 SCT065 17/11 Q1008 NOSIG
TAF LSGG 232325Z 2400/2506 VRB02KT 9999 BKN060 TX21/2415Z TN14/2405Z TN11/2505Z 
     PROB30 
     TEMPO 2400/2406 SHRA 
     BECMG 2407/2409 25007KT 
     BECMG 2421/2423 VRB02KT
       
LSGC 232320Z AUTO 23005KT 190V260 9999 BKN011 12/10 Q1009
TAF LSGC 231425Z 2315/2324 27012KT 9999 SCT045
       
LSZA 232320Z AUTO VRB01KT 9999 BKN075 17/14 Q1006
TAF LSZA 231425Z 2315/2324 18008KT 9999 BKN030 
     PROB40 
     TEMPO 2315/2324 SHRA SCT040TCU 
     PROB40 
     TEMPO 2315/2321 4000 TSRA SCT040CB
       
LSMM 232320Z AUTO 00000KT 9999NDV FEW003 BKN005 BKN078 16/16 Q1008 RMK
LSMP 232320Z AUTO 20003KT 170V230 9999NDV OVC056 17/11 Q1008 RMK
LSZS 232320Z AUTO 03006KT 9999 SCT065 BKN070 BKN095 09/09 Q1011
TAF LSZS 231425Z 2315/2324 21015KT 9999 SCT070 TX19/2315Z 
     PROB40 
     TEMPO 2315/2324 SHRA SCT040TCU 
     PROB30 
     TEMPO 2315/2321 30015G28KT TSRA SCT040CB
       
LSGS 232320Z AUTO VRB01KT 9999 NCD 16/15 Q1008
TAF LSGS 231425Z 2315/2324 25012KT 9999 FEW100 SCT150 
     BECMG 2318/2320 VRB02KT
       
LSZR 232320Z AUTO 20003KT 9999 FEW050 BKN060 BKN090 16/15 Q1008
TAF LSZR 231425Z 2315/2324 VRB02KT 9999 FEW050 
     PROB40 
     TEMPO 2315/2317 28015G30KT 4000 TSRA SCT040CB 
     PROB40 
     TEMPO 2315/2324 17010KT SHRA FEW050TCU
       
LSZH 232320Z AUTO VRB03KT 9999 FEW041 BKN048 BKN060 16/13 Q1008 RERA NOSIG
TAF LSZH 232325Z 2400/2506 VRB02KT 9999 FEW015 SCT030 BKN050 TX18/2415Z
TN12/2424Z TN11/2504Z 
     TEMPO 2404/2410 SHRA 
     PROB40 
     TEMPO 2407/2411 29010KT